createdAt,value
2023-01-26T00:02:00.295Z,10.43
2023-01-26T00:07:01.990Z,9.33
2023-01-26T00:12:03.643Z,9.73
2023-01-26T00:17:05.186Z,9.47
2023-01-26T00:22:06.805Z,9.50
2023-01-26T00:27:08.489Z,9.00
2023-01-26T00:32:10.056Z,10.63
2023-01-26T00:37:11.796Z,9.93
2023-01-26T00:42:14.147Z,10.13
2023-01-26T00:47:17.578Z,10.60
2023-01-26T00:52:19.385Z,10.60
2023-01-26T00:57:21.118Z,11.30
2023-01-26T01:02:22.736Z,10.57
2023-01-26T01:07:24.399Z,10.53
2023-01-26T01:12:26.767Z,11.70
2023-01-26T01:17:30.775Z,12.07
2023-01-26T01:22:33.545Z,11.20
2023-01-26T01:27:35.843Z,12.07
2023-01-26T01:32:40.047Z,12.00
2023-01-26T01:37:42.755Z,12.40
2023-01-26T01:42:48.719Z,13.10
2023-01-26T01:47:50.525Z,13.43
2023-01-26T01:52:53.879Z,13.50
2023-01-26T01:57:58.901Z,12.43
2023-01-26T02:03:20.956Z,12.73
2023-01-26T02:08:27.175Z,13.83
2023-01-26T02:13:29.907Z,12.27
2023-01-26T02:18:31.756Z,12.77
2023-01-26T02:24:07.133Z,12.37
2023-01-26T02:29:11.706Z,11.53
2023-01-26T02:34:17.232Z,12.07
2023-01-26T02:39:52.939Z,12.60
2023-01-26T02:44:54.625Z,13.77
2023-01-26T02:49:58.218Z,12.27
2023-01-26T02:55:18.580Z,13.57
2023-01-26T03:00:22.842Z,12.43
2023-01-26T03:05:27.226Z,13.00
2023-01-26T03:10:30.715Z,11.93
2023-01-26T03:15:42.772Z,13.20
2023-01-26T03:21:03.821Z,13.30
2023-01-26T03:26:24.671Z,14.83
2023-01-26T03:31:27.316Z,14.10
2023-01-26T03:36:28.990Z,13.33
2023-01-26T03:41:49.528Z,13.77
2023-01-26T03:47:10.069Z,13.67
2023-01-26T03:52:33.396Z,13.47
2023-01-26T03:57:37.274Z,14.13
2023-01-26T04:02:57.712Z,12.77
2023-01-26T04:08:23.027Z,12.97
2023-01-26T04:13:48.383Z,13.33
2023-01-26T04:19:15.608Z,12.97
2023-01-26T04:24:22.253Z,12.67
2023-01-26T04:29:28.141Z,12.73
2023-01-26T04:34:30.192Z,12.60
2023-01-26T04:39:32.907Z,13.20
2023-01-26T04:44:34.972Z,12.80
2023-01-26T04:49:37.473Z,13.63
2023-01-26T04:54:40.090Z,13.23
2023-01-26T04:59:41.879Z,12.60
2023-01-26T05:04:43.585Z,12.37
2023-01-26T05:09:46.042Z,12.43
2023-01-26T05:15:00.377Z,13.30
2023-01-26T05:20:18.442Z,13.33
2023-01-26T05:25:36.739Z,12.97
2023-01-26T05:30:42.395Z,13.87
2023-01-26T05:35:44.226Z,14.63
2023-01-26T05:40:45.864Z,12.27
2023-01-26T05:45:48.720Z,12.63
2023-01-26T05:50:51.866Z,12.13
2023-01-26T05:55:55.989Z,13.87
2023-01-26T06:01:04.434Z,13.27
2023-01-26T06:06:12.363Z,12.50
2023-01-26T06:11:21.751Z,11.43
2023-01-26T06:16:41.195Z,13.30
2023-01-26T06:21:43.933Z,11.83
2023-01-26T06:26:48.593Z,12.03
2023-01-26T06:31:51.694Z,11.47
2023-01-26T06:36:53.882Z,11.90
2023-01-26T06:42:10.500Z,11.60
2023-01-26T06:47:14.872Z,11.67
2023-01-26T06:52:30.611Z,12.80
2023-01-26T06:57:37.131Z,11.90
2023-01-26T07:02:46.550Z,11.70
2023-01-26T07:07:48.399Z,11.93
2023-01-26T07:12:50.030Z,12.20
2023-01-26T07:17:51.553Z,10.80
2023-01-26T07:22:53.498Z,11.87
2023-01-26T07:27:58.877Z,12.33
2023-01-26T07:33:00.951Z,12.33
2023-01-26T07:38:05.844Z,11.63
2023-01-26T07:43:07.531Z,11.13
2023-01-26T07:48:29.839Z,11.50
2023-01-26T07:53:34.046Z,11.03
2023-01-26T07:58:36.089Z,11.47
2023-01-26T08:03:38.168Z,10.97
2023-01-26T08:08:41.090Z,13.20
2023-01-26T08:13:42.642Z,11.83
2023-01-26T08:18:46.056Z,11.43
2023-01-26T08:23:51.426Z,12.53
2023-01-26T08:28:53.018Z,13.47
2023-01-26T08:33:56.039Z,11.70
2023-01-26T08:38:57.706Z,12.83
2023-01-26T08:43:59.466Z,13.43
2023-01-26T08:49:01.060Z,11.87
2023-01-26T08:54:05.058Z,12.43
2023-01-26T08:59:06.657Z,12.03
2023-01-26T09:04:08.262Z,10.60
2023-01-26T09:09:13.336Z,12.30
2023-01-26T09:14:15.274Z,11.10
2023-01-26T09:19:16.942Z,12.50
2023-01-26T09:24:18.550Z,12.03
2023-01-26T09:29:20.480Z,12.73
2023-01-26T09:34:21.990Z,12.33
2023-01-26T09:39:23.500Z,11.73
2023-01-26T09:44:26.284Z,12.97
2023-01-26T09:50:11.396Z,12.47
2023-01-26T09:55:16.825Z,12.93
2023-01-26T10:00:48.849Z,14.07
2023-01-26T10:06:02.660Z,13.83
2023-01-26T10:11:32.070Z,14.07
2023-01-26T10:16:36.800Z,14.73
2023-01-26T10:21:41.722Z,13.70
2023-01-26T10:26:43.564Z,13.87
2023-01-26T10:31:45.653Z,13.97
2023-01-26T10:36:47.717Z,16.13
2023-01-26T10:42:03.458Z,15.00
2023-01-26T10:47:16.794Z,14.63
2023-01-26T10:52:22.197Z,14.77
2023-01-26T10:57:31.622Z,14.93
2023-01-26T11:02:35.586Z,15.63
2023-01-26T11:07:41.201Z,14.10
2023-01-26T11:12:42.888Z,14.23
2023-01-26T11:17:48.291Z,14.83
2023-01-26T11:23:09.045Z,16.40
2023-01-26T11:28:29.611Z,14.10
2023-01-26T11:34:04.671Z,14.50
2023-01-26T11:39:52.539Z,14.73
2023-01-26T11:45:29.118Z,15.60
2023-01-26T11:50:35.607Z,15.00
2023-01-26T11:56:25.741Z,14.60
2023-01-26T12:01:59.627Z,13.90
2023-01-26T12:07:12.250Z,14.03
2023-01-26T12:12:30.772Z,14.83
2023-01-26T12:18:01.628Z,14.10
2023-01-26T12:23:06.469Z,15.20
2023-01-26T12:28:17.042Z,15.27
2023-01-26T12:33:19.266Z,14.73
2023-01-26T12:38:30.505Z,15.30
2023-01-26T12:44:23.930Z,14.77
2023-01-26T12:49:42.887Z,14.13
2023-01-26T12:54:54.818Z,13.50
2023-01-26T13:00:04.730Z,12.57
2023-01-26T13:05:07.961Z,12.70
2023-01-26T13:10:10.128Z,11.80
2023-01-26T13:15:14.996Z,12.17
2023-01-26T13:20:23.936Z,12.60
2023-01-26T13:25:33.105Z,13.80
2023-01-26T13:30:43.427Z,12.97
2023-01-26T13:35:46.305Z,12.33
2023-01-26T13:40:50.384Z,13.33
2023-01-26T13:46:14.466Z,13.37
2023-01-26T13:51:35.537Z,13.33
2023-01-26T13:56:39.071Z,13.33
2023-01-26T14:01:52.484Z,14.13
2023-01-26T14:06:58.074Z,13.93
2023-01-26T14:12:01.942Z,13.63
2023-01-26T14:17:08.559Z,13.63
2023-01-26T14:22:13.323Z,12.97
2023-01-26T14:27:27.042Z,12.60
2023-01-26T14:32:29.576Z,12.00
2023-01-26T14:37:31.176Z,11.20
2023-01-26T14:42:33.339Z,11.70
2023-01-26T14:47:35.374Z,11.57
2023-01-26T14:52:40.799Z,11.70
2023-01-26T14:57:42.398Z,11.73
2023-01-26T15:02:44.595Z,11.40
2023-01-26T15:07:59.343Z,12.60
2023-01-26T15:13:09.883Z,11.50
2023-01-26T15:18:14.437Z,11.30
2023-01-26T15:23:27.888Z,13.27
2023-01-26T15:28:29.512Z,12.97
2023-01-26T15:33:53.043Z,10.83
2023-01-26T15:39:19.829Z,11.63
2023-01-26T15:44:21.506Z,10.83
2023-01-26T15:49:23.462Z,10.17
2023-01-26T15:54:25.019Z,9.27
2023-01-26T15:59:26.650Z,10.23
2023-01-26T16:04:28.265Z,9.13
2023-01-26T16:09:29.895Z,9.13
2023-01-26T16:14:31.434Z,10.07
2023-01-26T16:19:35.663Z,9.23
2023-01-26T16:24:37.789Z,9.50
2023-01-26T16:29:39.358Z,9.13
2023-01-26T16:34:40.868Z,8.70
2023-01-26T16:39:42.450Z,9.13
2023-01-26T16:44:45.012Z,8.20
2023-01-26T16:49:47.502Z,8.97
2023-01-26T16:54:50.095Z,8.50
2023-01-26T16:59:51.923Z,7.70
2023-01-26T17:04:53.595Z,8.07
2023-01-26T17:09:55.203Z,6.90
2023-01-26T17:14:56.805Z,7.97
2023-01-26T17:20:16.643Z,8.60
2023-01-26T17:25:19.753Z,9.30
2023-01-26T17:30:21.761Z,10.13
2023-01-26T17:35:23.363Z,8.97
2023-01-26T17:40:24.920Z,10.93
2023-01-26T17:45:26.663Z,10.83
2023-01-26T17:50:28.213Z,10.50
2023-01-26T17:55:29.810Z,9.87
2023-01-26T18:00:31.425Z,9.40
2023-01-26T18:05:33.329Z,9.50
2023-01-26T18:10:34.917Z,10.63
2023-01-26T18:15:38.209Z,10.37
2023-01-26T18:20:39.801Z,10.90
2023-01-26T18:25:41.392Z,10.93
2023-01-26T18:30:43.002Z,10.80
2023-01-26T18:35:44.575Z,9.93
2023-01-26T18:40:46.186Z,9.40
2023-01-26T18:45:47.763Z,10.57
2023-01-26T18:50:49.744Z,9.87
2023-01-26T18:55:55.252Z,10.43
2023-01-26T19:00:58.846Z,9.83
2023-01-26T19:06:04.615Z,10.07
2023-01-26T19:11:07.403Z,11.50
2023-01-26T19:16:09.621Z,13.37
2023-01-26T19:21:11.214Z,11.43
2023-01-26T19:26:15.116Z,12.53
2023-01-26T19:31:19.169Z,10.87
2023-01-26T19:36:21.621Z,10.93
2023-01-26T19:41:24.115Z,11.33
2023-01-26T19:46:26.025Z,12.33
2023-01-26T19:51:27.914Z,10.90
2023-01-26T19:56:31.647Z,13.63
2023-01-26T20:01:34.073Z,12.47
2023-01-26T20:06:37.757Z,14.00
2023-01-26T20:11:39.356Z,13.17
2023-01-26T20:16:41.127Z,14.37
2023-01-26T20:21:43.560Z,11.80
2023-01-26T20:26:45.402Z,13.90
2023-01-26T20:31:48.590Z,12.40
2023-01-26T20:36:50.960Z,12.57
2023-01-26T20:41:53.469Z,14.57
2023-01-26T20:46:55.166Z,16.83
2023-01-26T20:51:56.720Z,16.97
2023-01-26T20:56:58.558Z,16.17
2023-01-26T21:02:00.570Z,17.47
2023-01-26T21:07:02.387Z,16.80
2023-01-26T21:12:04.186Z,15.00
2023-01-26T21:17:07.470Z,16.07
2023-01-26T21:22:09.065Z,17.67
2023-01-26T21:27:10.669Z,16.77
2023-01-26T21:32:12.281Z,20.17
2023-01-26T21:37:13.883Z,19.50
2023-01-26T21:42:15.402Z,18.03
2023-01-26T21:47:16.972Z,16.53
2023-01-26T21:52:37.063Z,16.67
2023-01-26T21:57:58.080Z,15.77
2023-01-26T22:03:00.677Z,17.17
2023-01-26T22:08:02.366Z,15.17
2023-01-26T22:13:04.090Z,15.70
2023-01-26T22:18:05.719Z,14.77
2023-01-26T22:23:07.229Z,15.90
2023-01-26T22:28:08.842Z,14.93
2023-01-26T22:33:10.421Z,15.27
2023-01-26T22:38:11.934Z,14.93
2023-01-26T22:43:13.463Z,16.27
2023-01-26T22:48:15.928Z,18.00
2023-01-26T22:53:17.490Z,15.63
2023-01-26T22:58:19.576Z,15.37
2023-01-26T23:03:21.139Z,16.37
2023-01-26T23:08:22.718Z,16.60
2023-01-26T23:13:24.456Z,16.97
2023-01-26T23:18:26.261Z,16.77
2023-01-26T23:23:29.109Z,16.27
2023-01-26T23:28:35.035Z,16.20
2023-01-26T23:33:37.665Z,16.07
2023-01-26T23:38:39.617Z,14.70
2023-01-26T23:43:41.374Z,16.07
2023-01-26T23:48:42.991Z,16.07
2023-01-26T23:53:44.548Z,15.23
2023-01-26T23:58:46.450Z,14.67
